LFBG/CNG METAR and TAF weather

Enter ICAO airport designator
Station Type Date Time Source
LFBG METAR 2018/12/15 20:30 UTC NOAA

LFBG 152030Z AUTO 18013KT 5000 -RA BR SCT005/// BKN010/// BKN016/// ///TCU 08/08 Q1014


Station Type Date Time Source
LFBG Decoded METAR 2018/12/15 20:30 UTC NOAA

Cognac, France (LFBG) 45-40N 000-19W 31M
Dec 15, 2018 - 03:30 PM EST / 2018.12.15 2030 UTC
Wind: from the S (180 degrees) at 15 MPH (13 KT):0
Visibility: 3 mile(s):0
Sky conditions: mostly cloudy
Weather: light rain; mist; Towering cumulus clouds observed
Temperature: 46 F (8 C)
Dew Point: 46 F (8 C)
Relative Humidity: 100%
Pressure (altimeter): 29.94 in. Hg (1014 hPa)
ob: LFBG 152030Z AUTO 18013KT 5000 -RA BR SCT005/// BKN010/// BKN016/// ///TCU 08/08 Q1014
cycle: 20

Station Type Date Time Source
LFBG TAF 2018/12/14 15:30 UTC NOAA

TAF TAF LFBG 141523Z 1415/1515 CNL


Example: see airport list